Terminal Aerodrome Forecast
Issued by NWS Missoula, MT

Home | Current Version | Previous Version | Text Only | Print | Product List | Glossary On
Versions: 1 2 3 4 5 6 7 8 9 10 11 12 13 14 15 16 17 18 19 20 21 22 23 24 25 26 27 28 29 30
000
FTUS45 KMSO 282335
TAFMSO
TAF
KMSO 282335Z 2900/2924 09006KT P6SM VCSH OVC045
     FM290200 15010G20KT P6SM -RA OVC030
     FM291200 34016KT 6SM -RA BR OVC015
     FM292100 36014KT 6SM -SN BR OVC020=

USA.gov is the U.S. government's official web portal to all federal, state and local government web resources and services.